Time;durP1;ratioP1;P1;durP2;ratioP2;P2;SDS_P1;SDS_P2;PMS_P1;PMS_P2;Temp;Humidity;BMP_temperature;BMP_pressure;BME280_temperature;BME280_humidity;BME280_pressure;Samples;Min_cycle;Max_cycle;Signal;HPM_P1;HPM_P2
2021/12/11 00:02:19;;;;;;;32.08;17.08;;;;;;;;;;5080621;28;20535;-68
2021/12/11 00:04:49;;;;;;;30.85;17.73;;;;;;;;;;5080247;28;20044;-68
2021/12/11 00:07:16;;;;;;;30.67;16.60;;;;;;;;;;5061999;28;20107;-67
2021/12/11 00:09:48;;;;;;;31.48;16.80;;;;;;;;;;5055645;28;20032;-68
2021/12/11 00:12:17;;;;;;;33.58;17.50;;;;;;;;;;5070167;28;20559;-69
2021/12/11 00:14:44;;;;;;;31.45;17.65;;;;;;;;;;5072847;28;20039;-68
2021/12/11 00:17:11;;;;;;;32.13;16.47;;;;;;;;;;5057689;28;20059;-68
2021/12/11 00:19:39;;;;;;;27.20;16.48;;;;;;;;;;5052727;28;20024;-68
2021/12/11 00:22:09;;;;;;;27.43;17.13;;;;;;;;;;5051754;28;20070;-67
2021/12/11 00:24:36;;;;;;;29.10;16.67;;;;;;;;;;5070459;28;20480;-68
2021/12/11 00:27:05;;;;;;;30.67;16.33;;;;;;;;;;5069950;28;20028;-67
2021/12/11 00:29:31;;;;;;;31.90;17.48;;;;;;;;;;5075931;28;20054;-67
2021/12/11 00:32:23;;;;;;;31.52;15.70;;;;;;;;;;5051474;28;20040;-67
2021/12/11 00:34:50;;;;;;;29.30;15.60;;;;;;;;;;5060770;28;20048;-67
2021/12/11 00:37:18;;;;;;;31.65;16.73;;;;;;;;;;5069529;28;20092;-66
2021/12/11 00:39:58;;;;;;;37.58;18.48;;;;;;;;;;5052205;28;20024;-67
2021/12/11 00:42:31;;;;;;;40.20;19.35;;;;;;;;;;5069273;28;20021;-67
2021/12/11 00:45:00;;;;;;;33.85;17.33;;;;;;;;;;5070404;28;20483;-67
2021/12/11 00:47:26;;;;;;;;;;;;;;;;;;5070487;28;20028;-66
2021/12/11 00:49:54;;;;;;;40.10;21.02;;;;;;;;;;5069755;28;20479;-67
2021/12/11 00:52:30;;;;;;;39.40;22.45;;;;;;;;;;5071683;28;20040;-67
2021/12/11 00:54:57;;;;;;;38.28;20.45;;;;;;;;;;5071466;28;20073;-67
2021/12/11 00:57:24;;;;;;;39.85;19.05;;;;;;;;;;5069907;28;20021;-67
2021/12/11 01:00:25;;;;;;;34.22;19.83;;;;;;;;;;5072858;28;20540;-68
2021/12/11 01:02:55;;;;;;;33.63;18.80;;;;;;;;;;4999341;28;20030;-67
2021/12/11 01:05:23;;;;;;;36.90;18.88;;;;;;;;;;5061612;28;20046;-67
2021/12/11 01:07:49;;;;;;;42.03;18.85;;;;;;;;;;5051642;28;20384;-67
2021/12/11 01:10:21;;;;;;;38.00;19.35;;;;;;;;;;5069642;28;20104;-65
2021/12/11 01:12:53;;;;;;;38.67;19.55;;;;;;;;;;5068976;28;20028;-66
2021/12/11 01:15:22;;;;;;;33.78;18.23;;;;;;;;;;5071908;28;20023;-66
2021/12/11 01:20:45;;;;;;;37.08;18.58;;;;;;;;;;5094539;28;20474;-64
2021/12/11 01:23:26;;;;;;;36.50;17.75;;;;;;;;;;5093902;28;20016;-66
2021/12/11 01:25:52;;;;;;;34.17;17.25;;;;;;;;;;5076870;28;20020;-64
2021/12/11 01:28:19;;;;;;;35.97;16.77;;;;;;;;;;5076625;28;20031;-63
2021/12/11 01:30:45;;;;;;;30.00;17.38;;;;;;;;;;5094743;28;20427;-64
2021/12/11 01:33:11;;;;;;;32.58;17.80;;;;;;;;;;5093526;28;20381;-63
2021/12/11 01:35:38;;;;;;;32.38;16.10;;;;;;;;;;5075598;28;20028;-64
2021/12/11 01:38:16;;;;;;;31.55;17.27;;;;;;;;;;5075870;28;20028;-64
2021/12/11 01:40:43;;;;;;;29.65;15.52;;;;;;;;;;5076141;28;20468;-64
2021/12/11 01:43:10;;;;;;;29.17;15.63;;;;;;;;;;5093536;28;20020;-64
2021/12/11 01:45:37;;;;;;;33.05;17.58;;;;;;;;;;5075955;28;20021;-64
2021/12/11 01:48:03;;;;;;;30.80;15.48;;;;;;;;;;5075975;28;20028;-65
2021/12/11 01:50:32;;;;;;;32.47;16.73;;;;;;;;;;5093923;28;20017;-64
2021/12/11 01:53:03;;;;;;;29.63;16.60;;;;;;;;;;5075146;28;20020;-66
2021/12/11 01:55:39;;;;;;;28.80;15.38;;;;;;;;;;5075743;28;20028;-64
2021/12/11 01:58:07;;;;;;;32.55;16.10;;;;;;;;;;5074608;28;20032;-64
2021/12/11 02:00:59;;;;;;;32.35;15.40;;;;;;;;;;5093923;28;20103;-64
2021/12/11 02:03:27;;;;;;;27.80;14.85;;;;;;;;;;5089074;28;20423;-62
2021/12/11 02:05:53;;;;;;;31.23;14.55;;;;;;;;;;5076196;28;20024;-64
2021/12/11 02:08:22;;;;;;;28.25;15.57;;;;;;;;;;5093090;28;20024;-63
2021/12/11 02:10:48;;;;;;;;;;;;;;;;;;5094176;28;20020;-64
2021/12/11 02:13:21;;;;;;;29.60;14.63;;;;;;;;;;5093082;28;19927;-63
2021/12/11 02:15:51;;;;;;;26.65;14.48;;;;;;;;;;5075330;28;20020;-65
2021/12/11 02:18:22;;;;;;;29.50;16.27;;;;;;;;;;5093223;28;20066;-64
2021/12/11 02:21:01;;;;;;;31.10;15.95;;;;;;;;;;5075362;28;20016;-65
2021/12/11 02:23:27;;;;;;;27.98;15.25;;;;;;;;;;5092704;28;20020;-65
2021/12/11 02:26:05;;;;;;;33.28;16.38;;;-0.70;99.90;;;;;;5075173;28;20392;-64
2021/12/11 02:28:35;;;;;;;30.05;14.95;;;;;;;;;;5075205;28;20024;-64
2021/12/11 02:31:07;;;;;;;30.55;14.88;;;;;;;;;;5093148;28;20453;-64
2021/12/11 02:33:39;;;;;;;27.80;15.15;;;;;;;;;;5092577;28;20020;-64
2021/12/11 02:36:10;;;;;;;27.67;13.35;;;;;;;;;;5074845;28;20486;-64
2021/12/11 02:38:39;;;;;;;33.30;16.55;;;;;;;;;;5093199;28;20016;-64
2021/12/11 02:41:09;;;;;;;29.88;15.43;;;;;;;;;;5074897;28;20028;-65
2021/12/11 02:43:43;;;;;;;30.05;15.10;;;;;;;;;;5092401;28;20054;-65
2021/12/11 02:46:15;;;;;;;30.13;15.00;;;;;;;;;;5074714;28;20055;-64
2021/12/11 02:48:44;;;;;;;28.33;15.30;;;;;;;;;;5092950;28;20074;-64
2021/12/11 02:51:31;;;;;;;31.05;15.70;;;;;;;;;;5092950;28;20031;-64
2021/12/11 02:54:00;;;;;;;29.52;15.00;;;;;;;;;;5092246;28;20023;-64
2021/12/11 02:56:33;;;;;;;27.25;13.57;;;;;;;;;;5074429;28;20062;-64
2021/12/11 02:59:01;;;;;;;28.25;13.82;;;;;;;;;;5074515;28;20105;-64
2021/12/11 03:01:29;;;;;;;29.17;14.88;;;;;;;;;;5092517;28;20035;-61
2021/12/11 03:04:15;;;;;;;27.83;15.30;;;;;;;;;;5073970;28;20032;-64
2021/12/11 03:06:45;;;;;;;28.10;14.60;;;;;;;;;;5092664;28;20069;-64
2021/12/11 03:09:12;;;;;;;29.27;15.35;;;;;;;;;;5073403;28;20020;-64
2021/12/11 03:11:38;;;;;;;28.60;15.35;;;;;;;;;;5073682;28;20040;-64
2021/12/11 03:14:07;;;;;;;29.77;15.13;;;;;;;;;;5074422;28;20484;-64
2021/12/11 03:16:35;;;;;;;29.85;16.17;;;;;;;;;;5092487;28;20027;-63
2021/12/11 03:19:02;;;;;;;30.90;15.38;;;;;;;;;;5092183;28;20380;-62
2021/12/11 03:21:28;;;;;;;32.45;17.67;;;;;;;;;;5092230;28;20361;-62
2021/12/11 03:23:55;;;;;;;28.50;16.15;;;-1.50;99.90;;;;;;5091976;28;20119;-62
2021/12/11 03:26:21;;;;;;;31.13;16.80;;;-1.70;99.90;;;;;;5074253;28;20028;-63
2021/12/11 03:28:47;;;;;;;28.30;16.02;;;-1.80;99.90;;;;;;5074313;28;20024;-63
2021/12/11 03:31:15;;;;;;;29.75;16.70;;;-1.70;99.90;;;;;;5092331;28;20031;-63
2021/12/11 03:33:43;;;;;;;31.90;16.27;;;;;;;;;;5091651;28;20073;-63
2021/12/11 03:36:12;;;;;;;29.23;15.48;;;;;;;;;;5092197;28;20055;-63
2021/12/11 03:38:39;;;;;;;30.65;15.82;;;;;;;;;;5074129;28;20024;-63
2021/12/11 03:41:05;;;;;;;31.00;17.13;;;;;;;;;;5092044;28;20024;-63
2021/12/11 03:43:32;;;;;;;29.27;16.40;;;;;;;;;;5091449;28;20020;-63
2021/12/11 03:46:00;;;;;;;37.00;17.92;;;;;;;;;;5092215;28;20032;-63
2021/12/11 03:48:27;;;;;;;35.15;18.02;;;;;;;;;;5092004;28;20028;-63
2021/12/11 03:50:54;;;;;;;30.35;16.38;;;;;;;;;;5074064;28;20036;-63
2021/12/11 03:53:20;;;;;;;30.10;17.08;;;;;;;;;;5091354;28;20078;-63
2021/12/11 03:55:54;;;;;;;34.60;17.55;;;;;;;;;;5092397;28;20039;-62
2021/12/11 03:58:20;;;;;;;31.45;16.50;;;;;;;;;;5092071;28;20480;-63
2021/12/11 04:00:51;;;;;;;29.58;14.50;;;;;;;;;;5092079;28;20020;-64
2021/12/11 04:03:20;;;;;;;30.17;17.60;;;;;;;;;;5091473;28;20067;-63
2021/12/11 04:05:47;;;;;;;30.30;16.80;;;;;;;;;;5092028;28;20028;-60
2021/12/11 04:08:15;;;;;;;29.60;16.33;;;;;;;;;;5090874;28;20093;-62
2021/12/11 04:10:41;;;;;;;30.40;17.20;;;;;;;;;;5092315;28;20031;-62
2021/12/11 04:13:08;;;;;;;31.48;17.45;;;;;;;;;;5091091;28;20028;-62
2021/12/11 04:15:36;;;;;;;32.70;17.80;;;-1.80;99.90;;;;;;5073672;28;20081;-63
2021/12/11 04:18:02;;;;;;;28.73;16.13;;;-1.90;99.90;;;;;;5091661;28;20662;-62
2021/12/11 04:20:29;;;;;;;33.35;14.98;;;-1.90;99.90;;;;;;5073863;28;20135;-64
2021/12/11 04:22:55;;;;;;;29.67;15.52;;;-2.00;99.90;;;;;;5073520;28;20021;-62
2021/12/11 04:25:24;;;;;;;32.78;18.52;;;-2.10;99.90;;;;;;5092669;28;20027;-63
2021/12/11 04:27:51;;;;;;;30.17;16.85;;;;;;;;;;5074860;28;20049;-62
2021/12/11 04:30:19;;;;;;;30.77;16.63;;;;;;;;;;5076893;28;20028;-63
2021/12/11 04:32:46;;;;;;;33.50;17.00;;;;;;;;;;5076879;28;20031;-63
2021/12/11 04:35:17;;;;;;;29.60;15.65;;;;;;;;;;5078298;28;20535;-63
2021/12/11 04:37:43;;;;;;;29.48;15.25;;;;;;;;;;5078263;28;20028;-64
2021/12/11 04:40:12;;;;;;;29.45;15.15;;;;;;;;;;5096193;28;20563;-63
2021/12/11 04:42:52;;;;;;;27.25;15.40;;;;;;;;;;5094999;28;20020;-63
2021/12/11 04:45:22;;;;;;;26.45;15.27;;;;;;;;;;5096120;28;20020;-63
2021/12/11 04:48:01;;;;;;;28.27;14.50;;;;;;;;;;5077249;28;20411;-63
2021/12/11 04:50:40;;;;;;;25.73;15.02;;;;;;;;;;5095179;28;20054;-63
2021/12/11 04:53:20;;;;;;;33.50;15.50;;;;;;;;;;5094315;28;20020;-63
2021/12/11 05:06:13;;;;;;;29.17;14.63;;;;;;;;;;5094980;28;20119;-63
2021/12/11 05:11:10;;;;;;;30.45;15.40;;;;;;;;;;5094958;28;20503;-63
2021/12/11 05:13:36;;;;;;;26.17;14.68;;;;;;;;;;5094179;28;20403;-63
2021/12/11 05:16:05;;;;;;;30.33;15.40;;;;;;;;;;5094570;28;20107;-63
2021/12/11 05:18:32;;;;;;;25.90;14.25;;;;;;;;;;5094718;28;20055;-61
2021/12/11 05:21:00;;;;;;;30.55;15.23;;;;;;;;;;5076502;28;20024;-63
2021/12/11 05:23:26;;;;;;;28.65;15.80;;;;;;;;;;5075738;28;20495;-63
2021/12/11 05:25:52;;;;;;;26.45;14.85;;;;;;;;;;5076300;28;20028;-63
2021/12/11 05:28:19;;;;;;;24.42;14.00;;;;;;;;;;5094397;28;20024;-64
2021/12/11 05:30:47;;;;;;;28.23;15.10;;;;;;;;;;5094609;28;20712;-63
2021/12/11 05:33:13;;;;;;;;;;;;;;;;;;5094150;28;20069;-64
2021/12/11 05:35:40;;;;;;;128.43;67.22;;;;;;;;;;5076254;28;20275;-64
2021/12/11 05:38:07;;;;;;;202.67;101.97;;;;;;;;;;5094179;28;20032;-64
2021/12/11 05:40:34;;;;;;;40.13;22.38;;;;;;;;;;5093979;28;20306;-64
2021/12/11 05:43:01;;;;;;;27.73;15.45;;;;;;;;;;5074841;28;20024;-63
2021/12/11 05:45:27;;;;;;;29.52;15.60;;;;;;;;;;5071316;28;20012;-63
2021/12/11 05:47:53;;;;;;;26.00;15.60;;;-2.10;99.90;;;;;;5091654;28;20028;-64
2021/12/11 05:50:22;;;;;;;24.52;14.90;;;;;;;;;;5065016;28;20028;-62
2021/12/11 05:52:49;;;;;;;28.00;14.73;;;;;;;;;;5072869;28;20025;-65
2021/12/11 05:55:18;;;;;;;28.80;14.45;;;;;;;;;;5089725;28;20415;-65
2021/12/11 05:57:52;;;;;;;27.63;14.88;;;;;;;;;;5075407;28;20062;-65
2021/12/11 06:00:21;;;;;;;28.33;15.10;;;;;;;;;;5075762;28;20028;-65
2021/12/11 06:02:47;;;;;;;29.27;15.07;;;;;;;;;;5066871;28;20031;-64
2021/12/11 06:05:13;;;;;;;31.20;15.77;;;;;;;;;;5073490;28;20496;-62
2021/12/11 06:07:43;;;;;;;33.42;15.27;;;;;;;;;;5072319;28;20033;-62
2021/12/11 06:10:12;;;;;;;29.42;14.45;;;;;;;;;;5055370;28;20387;-63
2021/12/11 06:12:38;;;;;;;28.42;15.07;;;;;;;;;;5072492;28;20032;-63
2021/12/11 06:15:04;;;;;;;28.08;14.15;;;;;;;;;;5073322;28;20031;-63
2021/12/11 06:17:32;;;;;;;29.27;15.32;;;;;;;;;;5073004;28;20051;-62
2021/12/11 06:19:58;;;;;;;30.45;15.85;;;;;;;;;;5082244;28;20488;-63
2021/12/11 06:22:32;;;;;;;26.48;14.32;;;;;;;;;;5092489;28;20020;-63
2021/12/11 06:25:00;;;;;;;30.65;15.48;;;;;;;;;;5075036;28;20020;-63
2021/12/11 06:27:26;;;;;;;;;;;;;;;;;;5093627;28;20021;-63
2021/12/11 06:29:52;;;;;;;27.40;16.02;;;;;;;;;;5075131;28;20018;-63
2021/12/11 06:32:18;;;;;;;34.13;16.00;;;;;;;;;;5092612;28;20086;-64
2021/12/11 06:34:45;;;;;;;28.20;15.40;;;;;;;;;;5092855;28;20065;-63
2021/12/11 06:37:14;;;;;;;30.70;14.93;;;;;;;;;;5074939;28;20024;-63
2021/12/11 06:39:41;;;;;;;29.02;16.05;;;;;;;;;;5093139;28;20023;-63
2021/12/11 06:42:09;;;;;;;29.35;14.73;;;;;;;;;;5092444;28;20074;-63
2021/12/11 06:44:35;;;;;;;;;;;;;;;;;;5075332;28;20101;-63
2021/12/11 06:47:05;;;;;;;31.15;16.60;;;;;;;;;;5092797;28;19904;-63
2021/12/11 06:49:32;;;;;;;34.55;18.85;;;;;;;;;;5092971;28;20020;-63
2021/12/11 06:51:59;;;;;;;33.27;16.77;;;;;;;;;;5074179;28;20472;-63
2021/12/11 06:54:25;;;;;;;27.73;16.27;;;;;;;;;;5091935;28;20027;-63
2021/12/11 06:56:52;;;;;;;28.92;15.27;;;;;;;;;;5092563;28;20028;-62
2021/12/11 06:59:18;;;;;;;29.95;14.15;;;;;;;;;;5092869;28;20027;-62
2021/12/11 07:01:44;;;;;;;31.42;15.85;;;;;;;;;;5092284;28;20024;-62
2021/12/11 07:04:12;;;;;;;31.35;16.23;;;;;;;;;;5093266;28;20024;-62
2021/12/11 07:06:39;;;;;;;28.00;14.15;;;;;;;;;;5092810;28;20417;-63
2021/12/11 07:09:06;;;;;;;30.02;16.73;;;;;;;;;;5073631;28;20032;-63
2021/12/11 07:11:34;;;;;;;28.23;15.23;;;;;;;;;;5092403;28;20023;-62
2021/12/11 07:14:00;;;;;;;32.30;16.70;;;;;;;;;;5074555;28;20825;-62
2021/12/11 07:16:26;;;;;;;29.38;16.48;;;;;;;;;;5092522;28;20051;-63
2021/12/11 07:18:52;;;;;;;30.85;15.20;;;;;;;;;;5111740;23;20136;-67
2021/12/11 07:21:18;;;;;;;34.28;17.20;;;;;;;;;;5072784;28;20047;-66
2021/12/11 07:23:48;;;;;;;33.03;16.60;;;;;;;;;;5090313;28;20099;-66
2021/12/11 07:26:17;;;;;;;30.17;14.48;;;;;;;;;;5091203;28;20108;-67
2021/12/11 07:28:44;;;;;;;31.40;15.63;;;;;;;;;;5090982;28;20020;-66
2021/12/11 07:31:10;;;;;;;26.92;12.88;;;;;;;;;;5072861;28;20476;-67
2021/12/11 07:33:37;;;;;;;29.30;13.85;;;;;;;;;;5072031;28;20044;-66
2021/12/11 07:36:04;;;;;;;26.08;13.70;;;;;;;;;;5072653;28;20035;-64
2021/12/11 07:38:31;;;;;;;28.10;15.07;;;;;;;;;;5090722;28;20016;-66
2021/12/11 07:40:58;;;;;;;34.28;15.80;;;;;;;;;;5090827;28;20016;-66
2021/12/11 07:43:26;;;;;;;23.60;12.93;;;;;;;;;;5090045;28;20024;-66
2021/12/11 07:45:52;;;;;;;32.13;16.87;;;;;;;;;;5072873;28;20028;-66
2021/12/11 07:48:19;;;;;;;27.02;14.40;;;;;;;;;;5072432;28;20058;-65
2021/12/11 07:50:45;;;;;;;31.55;15.60;;;;;;;;;;5072914;28;20020;-66
2021/12/11 07:53:12;;;;;;;32.92;17.05;;;;;;;;;;5072131;28;20188;-66
2021/12/11 07:55:38;;;;;;;24.98;12.68;;;;;;;;;;5072723;28;20423;-65
2021/12/11 07:58:05;;;;;;;30.08;15.88;;;;;;;;;;5072567;28;20388;-66
2021/12/11 08:00:31;;;;;;;35.35;16.85;;;;;;;;;;5090652;28;20034;-66
2021/12/11 08:02:58;;;;;;;33.80;17.42;;;;;;;;;;5089909;28;20109;-66
2021/12/11 08:05:25;;;;;;;26.45;13.40;;;;;;;;;;5093151;28;20020;-68
2021/12/11 08:07:51;;;;;;;32.78;17.27;;;;;;;;;;5094593;28;20028;-67
2021/12/11 08:10:20;;;;;;;35.08;16.95;;;;;;;;;;5094495;28;20035;-66
2021/12/11 08:12:47;;;;;;;34.30;16.05;;;;;;;;;;5075755;28;20020;-67
2021/12/11 08:15:13;;;;;;;31.02;14.73;;;;;;;;;;5094577;28;20023;-66
2021/12/11 08:17:39;;;;;;;35.63;17.88;;;;;;;;;;5075890;28;20040;-66
2021/12/11 08:20:08;;;;;;;25.27;12.15;;;;;;;;;;5094561;28;20103;-66
2021/12/11 08:22:34;;;;;;;31.58;18.48;;;;;;;;;;5093632;28;20016;-63
2021/12/11 08:25:00;;;;;;;25.50;12.65;;;;;;;;;;5076210;28;20024;-66
2021/12/11 08:27:27;;;;;;;35.75;18.27;;;;;;;;;;5094201;28;20020;-66
2021/12/11 08:29:53;;;;;;;38.42;21.17;;;;;;;;;;5094216;28;20491;-67
2021/12/11 08:32:20;;;;;;;29.38;13.88;;;;;;;;;;5093644;28;20024;-66
2021/12/11 08:34:46;;;;;;;29.08;14.90;;;;;;;;;;5094196;28;20028;-67
2021/12/11 08:37:17;;;;;;;36.72;17.85;;;;;;;;;;5077454;28;20024;-67
2021/12/11 08:39:44;;;;;;;33.60;15.98;;;;;;;;;;5076114;28;20434;-67
2021/12/11 08:42:13;;;;;;;38.25;17.25;;;;;;;;;;5075107;28;20020;-67
2021/12/11 08:44:48;;;;;;;40.65;18.85;;;;;;;;;;5094055;28;20048;-67
2021/12/11 08:47:15;;;;;;;41.47;21.42;;;;;;;;;;5075764;28;20024;-66
2021/12/11 08:49:41;;;;;;;28.70;13.32;;;;;;;;;;5094039;28;20028;-66
2021/12/11 08:52:07;;;;;;;49.63;19.23;;;;;;;;;;5092973;28;20024;-66
2021/12/11 08:54:34;;;;;;;53.47;20.67;;;;;;;;;;5094023;28;20028;-67
2021/12/11 08:57:04;;;;;;;56.10;20.38;;;;;;;;;;5093794;28;20466;-67
2021/12/11 08:59:30;;;;;;;51.97;21.67;;;;;;;;;;5075671;28;20364;-65
2021/12/11 09:02:21;;;;;;;44.17;19.15;;;-2.00;99.90;;;;;;5092586;28;20445;-67
2021/12/11 09:04:56;;;;;;;50.88;18.73;;;;;;;;;;5093621;28;20050;-67
2021/12/11 09:07:28;;;;;;;33.50;16.00;;;-1.80;99.90;;;;;;5093203;28;20031;-66
2021/12/11 09:10:16;;;;;;;59.75;24.40;;;-1.70;99.90;;;;;;5093227;28;20633;-66
2021/12/11 09:13:17;;;;;;;45.45;18.98;;;-1.70;99.90;;;;;;5074613;28;20484;-65
2021/12/11 09:15:48;;;;;;;49.55;19.80;;;-1.60;99.90;;;;;;5086785;28;20439;-66
2021/12/11 09:18:25;;;;;;;58.92;22.33;;;-1.50;99.90;;;;;;5069260;28;20020;-68
2021/12/11 09:20:59;;;;;;;51.00;24.55;;;-1.50;99.90;;;;;;5093365;28;20476;-68
2021/12/11 09:23:31;;;;;;;47.08;20.10;;;;;;;;;;5063565;28;20035;-69
2021/12/11 09:25:57;;;;;;;65.57;25.40;;;;;;;;;;5061155;28;20408;-71
2021/12/11 09:28:23;;;;;;;55.38;22.90;;;;;;;;;;5065073;28;20031;-71
2021/12/11 09:30:53;;;;;;;66.07;23.77;;;;;;;;;;5055523;28;20382;-72
2021/12/11 09:33:24;;;;;;;54.47;23.83;;;;;;;;;;5054845;28;20033;-71
2021/12/11 09:35:58;;;;;;;58.97;23.30;;;;;;;;;;5073283;28;20103;-74
2021/12/11 09:38:29;;;;;;;67.82;24.20;;;;;;;;;;5055399;28;20017;-72
2021/12/11 09:40:55;;;;;;;48.22;20.85;;;;;;;;;;5073038;28;20096;-73
2021/12/11 09:43:31;;;;;;;46.90;21.42;;;;;;;;;;5072283;28;20101;-73
2021/12/11 09:45:57;;;;;;;60.25;24.13;;;;;;;;;;5074398;28;20029;-72
2021/12/11 09:48:23;;;;;;;67.03;31.52;;;;;;;;;;5063338;28;20033;-72
2021/12/11 09:50:57;;;;;;;70.68;30.27;;;;;;;;;;5055364;28;20024;-72
2021/12/11 09:53:25;;;;;;;44.65;18.95;;;;;;;;;;5054244;28;20040;-73
2021/12/11 09:55:51;;;;;;;86.57;28.45;;;;;;;;;;5072589;28;20107;-72
2021/12/11 09:58:19;;;;;;;79.82;31.80;;;;;;;;;;5055879;28;20047;-72
2021/12/11 10:00:54;;;;;;;69.47;31.40;;;;;;;;;;5064536;28;20025;-69
2021/12/11 10:03:23;;;;;;;68.63;28.33;;;;;;;;;;5067000;28;20413;-69
2021/12/11 10:05:56;;;;;;;88.82;34.50;;;;;;;;;;5079813;28;20040;-68
2021/12/11 10:08:36;;;;;;;63.65;25.13;;;;;;;;;;5080965;28;20047;-69
2021/12/11 10:11:02;;;;;;;96.07;37.90;;;;;;;;;;5073459;28;20479;-69
2021/12/11 10:13:29;;;;;;;64.20;28.45;;;;;;;;;;5073111;28;20028;-69
2021/12/11 10:15:55;;;;;;;116.43;41.60;;;;;;;;;;5092150;28;20024;-69
2021/12/11 10:18:24;;;;;;;110.25;36.85;;;;;;;;;;5092333;28;20449;-69
2021/12/11 10:21:10;;;;;;;88.22;35.50;;;;;;;;;;5073964;28;20479;-70
2021/12/11 10:23:37;;;;;;;95.18;30.85;;;;;;;;;;5090616;28;20407;-69
2021/12/11 10:26:04;;;;;;;93.85;36.88;;;;;;;;;;5092262;28;20024;-70
2021/12/11 10:28:30;;;;;;;55.10;25.77;;;;;;;;;;5091843;28;20028;-70
2021/12/11 10:31:02;;;;;;;87.93;33.00;;;;;;;;;;5092074;28;20107;-70
2021/12/11 10:33:29;;;;;;;93.95;37.30;;;;;;;;;;5073435;28;20024;-68
2021/12/11 10:35:57;;;;;;;92.22;38.80;;;;;;;;;;5092001;28;20020;-65
2021/12/11 10:38:23;;;;;;;114.03;37.50;;;;;;;;;;5091393;28;20020;-69
2021/12/11 10:40:51;;;;;;;90.43;34.40;;;;;;;;;;5091687;28;20506;-70
2021/12/11 10:43:22;;;;;;;103.93;40.58;;;;;;;;;;5091190;28;20024;-68
2021/12/11 10:45:50;;;;;;;139.35;40.15;;;;;;;;;;5091741;28;20038;-69
2021/12/11 10:48:18;;;;;;;90.68;38.28;;;;;;;;;;5091623;28;20042;-66
2021/12/11 10:50:49;;;;;;;106.88;37.95;;;;;;;;;;5091663;28;20084;-70
2021/12/11 10:53:19;;;;;;;106.47;39.08;;;;;;;;;;5072590;28;20040;-68
2021/12/11 10:55:45;;;;;;;107.03;39.47;;;;;;;;;;5091437;28;20020;-67
2021/12/11 10:58:15;;;;;;;111.38;36.63;;;;;;;;;;5091579;28;20024;-68
2021/12/11 11:00:58;;;;;;;99.50;40.05;;;;;;;;;;5073087;28;20031;-69
2021/12/11 11:03:27;;;;;;;82.75;32.75;;;;;;;;;;5072395;28;20411;-68
2021/12/11 11:05:53;;;;;;;101.45;34.65;;;;;;;;;;5073165;28;20024;-68
2021/12/11 11:08:19;;;;;;;92.53;38.75;;;;;;;;;;5073145;28;20055;-69
2021/12/11 11:10:49;;;;;;;117.75;41.03;;;;;;;;;;5073021;28;20028;-68
2021/12/11 11:13:15;;;;;;;112.20;41.53;;;;;;;;;;5090643;28;20074;-68
2021/12/11 11:15:43;;;;;;;106.80;41.70;;;;;;;;;;5073069;28;20451;-70
2021/12/11 11:18:10;;;;;;;114.68;39.70;;;;;;;;;;5090863;28;20174;-69
2021/12/11 11:20:38;;;;;;;112.75;41.85;;;;;;;;;;5072894;28;20028;-69
2021/12/11 11:23:08;;;;;;;96.23;37.50;;;;;;;;;;5090649;28;20020;-69
2021/12/11 11:25:36;;;;;;;105.90;38.78;;;;;;;;;;5072834;28;20353;-68
2021/12/11 11:28:05;;;;;;;100.63;37.00;;;;;;;;;;5090663;28;20020;-69
2021/12/11 11:30:34;;;;;;;121.20;37.88;;;;;;;;;;5072925;28;20384;-67
2021/12/11 11:33:05;;;;;;;108.75;36.88;;;;;;;;;;5090271;28;20147;-69
2021/12/11 11:35:32;;;;;;;89.90;35.28;;;;;;;;;;5072559;28;20028;-69
2021/12/11 11:38:01;;;;;;;114.35;41.03;;;;;;;;;;5072873;28;20484;-67
2021/12/11 11:40:30;;;;;;;104.32;41.25;;;;;;;;;;5072459;28;20172;-69
2021/12/11 11:42:59;;;;;;;117.30;37.05;;;;;;;;;;5090373;28;20017;-69
2021/12/11 11:45:26;;;;;;;124.20;44.42;;;;;;;;;;5072760;28;20031;-71
2021/12/11 11:47:54;;;;;;;101.43;41.13;;;-1.30;99.90;;;;;;4717673;28;9999898;-68
2021/12/11 11:50:25;;;;;;;106.57;42.45;;;1.00;99.90;;;;;;5069490;28;20050;-69
2021/12/11 11:52:52;;;;;;;106.95;40.53;;;1.00;99.90;;;;;;5086660;28;20070;-68
2021/12/11 11:55:26;;;;;;;131.85;41.35;;;1.00;99.90;;;;;;5069860;28;20059;-69
2021/12/11 11:57:54;;;;;;;112.75;42.00;;;1.10;99.90;;;;;;5068968;28;20459;-68
2021/12/11 12:00:43;;;;;;;102.53;41.20;;;1.10;99.90;;;;;;5087226;28;20031;-69
2021/12/11 12:03:11;;;;;;;101.30;40.92;;;1.10;99.90;;;;;;5069303;28;20032;-69
2021/12/11 12:05:38;;;;;;;124.90;42.28;;;1.20;99.90;;;;;;5069973;28;20055;-68
2021/12/11 12:08:07;;;;;;;104.95;40.50;;;1.20;99.90;;;;;;5069585;28;20554;-69
2021/12/11 12:10:33;;;;;;;;;;;1.20;99.90;;;;;;5088084;28;20051;-70
2021/12/11 12:12:58;;;;;;;98.18;37.67;;;1.30;99.90;;;;;;5089941;28;19908;-68
2021/12/11 12:15:31;;;;;;;114.15;42.50;;;1.30;99.90;;;;;;5090377;28;20020;-68
2021/12/11 12:17:58;;;;;;;101.78;41.83;;;1.30;99.90;;;;;;5071883;28;20043;-69
2021/12/11 12:20:25;;;;;;;120.30;42.72;;;1.40;99.90;;;;;;5090421;28;20020;-68
2021/12/11 12:22:52;;;;;;;91.25;39.53;;;1.50;99.90;;;;;;5089900;28;20024;-67
2021/12/11 12:25:18;;;;;;;120.00;40.67;;;1.40;99.90;;;;;;5090574;28;20419;-68
2021/12/11 12:27:45;;;;;;;99.38;38.70;;;1.40;99.90;;;;;;5090409;28;20030;-68
2021/12/11 12:30:22;;;;;;;100.50;39.17;;;;;;;;;;5090514;28;20024;-68
2021/12/11 12:32:51;;;;;;;113.27;36.53;;;;;;;;;;4735765;28;10000207;-69
2021/12/11 12:35:18;;;;;;;107.32;38.13;;;;;;;;;;5088506;28;20047;-67
2021/12/11 12:37:45;;;;;;;113.65;39.42;;;;;;;;;;5067624;28;20399;-69
2021/12/11 12:40:14;;;;;;;114.95;39.15;;;;;;;;;;5080132;28;20017;-70
2021/12/11 12:42:51;;;;;;;86.82;35.58;;;;;;;;;;5069314;28;20024;-68
2021/12/11 12:45:20;;;;;;;100.35;38.42;;;;;;;;;;5070040;28;20024;-68
2021/12/11 12:47:49;;;;;;;104.63;38.50;;;;;;;;;;5085980;28;20028;-67
2021/12/11 12:50:18;;;;;;;104.07;40.95;;;;;;;;;;5072079;28;20021;-68
2021/12/11 12:52:45;;;;;;;89.18;35.08;;;;;;;;;;5092395;28;20024;-69
2021/12/11 12:55:17;;;;;;;101.45;38.42;;;;;;;;;;5093898;28;20051;-68
2021/12/11 12:57:45;;;;;;;107.28;38.92;;;;;;;;;;5069314;28;20016;-69
2021/12/11 13:00:17;;;;;;;111.27;37.97;;;;;;;;;;5079078;28;20021;-68
2021/12/11 13:02:43;;;;;;;102.63;35.60;;;;;;;;;;5077968;28;20055;-69
2021/12/11 13:05:13;;;;;;;88.53;33.40;;;;;;;;;;4710389;28;10000170;-67
2021/12/11 13:07:39;;;;;;;98.63;36.45;;;;;;;;;;5072411;28;20073;-72
2021/12/11 13:10:09;;;;;;;88.15;34.47;;;;;;;;;;5072438;28;20024;-69
2021/12/11 13:12:37;;;;;;;93.55;34.75;;;;;;;;;;5071206;28;20477;-70
2021/12/11 13:15:09;;;;;;;128.77;39.80;;;;;;;;;;5072219;28;20603;-69
2021/12/11 13:17:43;;;;;;;102.00;37.25;;;;;;;;;;5112308;22;20024;-62
2021/12/11 13:20:20;;;;;;;105.90;36.92;;;;;;;;;;5048894;28;20033;-65
2021/12/11 13:22:48;;;;;;;91.07;34.05;;;;;;;;;;5050581;28;20086;-63
2021/12/11 13:25:19;;;;;;;99.68;38.50;;;;;;;;;;5049877;28;20029;-64
2021/12/11 13:27:47;;;;;;;92.32;36.10;;;1.40;99.90;;;;;;5051091;28;20273;-65
2021/12/11 13:30:18;;;;;;;83.78;33.38;;;2.40;99.90;;;;;;5048830;28;20067;-64
2021/12/11 13:32:45;;;;;;;93.97;35.65;;;2.40;99.90;;;;;;5047396;28;20032;-64
2021/12/11 13:35:15;;;;;;;86.93;35.63;;;2.20;99.90;;;;;;5050750;28;20025;-66
2021/12/11 13:37:40;;;;;;;85.82;32.63;;;2.30;99.90;;;;;;5032968;28;20033;-64
2021/12/11 13:40:11;;;;;;;88.45;37.38;;;2.30;99.90;;;;;;5033243;28;20021;-65
2021/12/11 13:42:38;;;;;;;89.78;33.97;;;2.30;99.90;;;;;;5050543;28;20032;-65
2021/12/11 13:45:18;;;;;;;85.88;34.60;;;2.20;99.90;;;;;;5032951;28;20140;-65
2021/12/11 13:47:45;;;;;;;88.05;35.55;;;2.20;99.90;;;;;;5050212;28;20100;-65
2021/12/11 13:50:21;;;;;;;102.00;36.85;;;2.20;99.90;;;;;;5050238;28;20477;-65
2021/12/11 13:52:47;;;;;;;92.70;35.75;;;2.20;99.90;;;;;;5047753;28;20035;-65
2021/12/11 13:55:13;;;;;;;96.63;36.25;;;2.20;99.90;;;;;;5050426;28;20021;-64
2021/12/11 13:57:39;;;;;;;95.97;34.80;;;2.20;99.90;;;;;;5032388;28;20663;-65
2021/12/11 14:00:13;;;;;;;92.55;34.75;;;2.30;99.90;;;;;;5049605;28;20108;-65
2021/12/11 14:02:42;;;;;;;108.90;38.38;;;2.20;99.90;;;;;;5049371;28;20108;-67
2021/12/11 14:05:08;;;;;;;91.65;37.25;;;2.20;99.90;;;;;;5048291;28;20029;-69
2021/12/11 14:07:38;;;;;;;102.35;39.28;;;2.20;99.90;;;;;;5050179;28;20673;-67
2021/12/11 14:10:21;;;;;;;88.32;34.97;;;2.20;99.90;;;;;;5054947;28;20063;-64
2021/12/11 14:12:49;;;;;;;92.90;36.25;;;2.30;99.90;;;;;;5029602;28;20401;-64
2021/12/11 14:15:18;;;;;;;95.13;36.70;;;2.30;99.90;;;;;;5031600;28;20033;-66
2021/12/11 14:17:44;;;;;;;100.40;39.28;;;2.30;99.90;;;;;;5031012;28;20029;-65
2021/12/11 14:20:11;;;;;;;100.70;38.72;;;2.20;99.90;;;;;;4683287;28;10000243;-64
2021/12/11 14:22:37;;;;;;;98.75;37.67;;;2.10;99.90;;;;;;5041994;28;20112;-64
2021/12/11 14:25:10;;;;;;;86.72;36.20;;;2.00;99.90;;;;;;5048143;28;20092;-67